x

Portlock Bank- 76nm Ene Of Kodiak, Ak (46080) Wave Buoy

1:50pm - Tue 28th Jul 2015 All times are AKDT. -8 hours from GMT.

  • Sig Wave height 3.3ft
  • Peak Period 6s
  • Average Period 5s
  • Wind
    4mph
  • Sea Temp 57°f
  • Air Temp 59°f
  • Sea Pressure 1011.1mb
  • Portlock Bank- 76nm Ene Of Kodiak, Ak
  • Portlock Bank- 76nm Ene Of Kodiak, Ak

More Historic Weather Station data

Upgrade to MSW Pro to gain access to the past 30 days of data for over 8000 Wavebouys and Weather Stations around the globe.

Join Pro

Comparision Forecast

View Surf forecast
   
Tue 07/28 1:50pm 3.5ft 6s 5s 4
mph
1011.1mb 57f 59f
12:50pm 3.5ft 6s 6s 2
mph
1010.7mb 56f 59f
11:50am 3.5ft 7s 6s  -  2 mph 1010.2mb 56f 58f
10:50am 3.5ft 7s 6s 2
mph
1010mb 56f 57f
9:50am 3.5ft 7s 6s 4
mph
1010.1mb 56f 57f
8:50am 3.5ft 7s 6s 2 4 mph 1009.7mb 56f 57f
7:50am 3.5ft 7s 6s 2
mph
1009.4mb 55f 56f
6:50am 4ft 8s 6s 2 4 mph 1009.2mb 56f 56f
5:50am 4ft 7s 6s 4
mph
1008.9mb 56f 56f
4:50am 3.5ft 7s 6s 4 7 mph 1008.8mb 56f 55f
3:50am 4ft 8s 6s 4
mph
1008.8mb 56f 55f
2:50am 3.5ft 7s 6s 4
mph
1008.8mb 56f 56f
1:50am 3ft 6s 5s 4
mph
1008.8mb 56f 56f
12:50am 3.5ft 7s 6s 2 4 mph 1008.4mb 56f 56f
Mon 07/27 11:50pm 3.5ft 6s 5s 2
mph
1008.3mb 56f 56f
10:50pm 3.5ft 7s 5s 7
mph
1008.2mb 56f 56f
9:50pm 4ft 8s 5s 7 9 mph 1007.8mb 56f 56f
8:50pm 4ft 8s 5s 7 9 mph 1007.7mb 56f 56f
7:50pm 3.5ft 7s 5s 9
mph
1007.5mb 56f 57f
6:50pm 4ft 8s 5s 9 11 mph 1007.2mb 56f 56f
5:50pm 3.5ft 8s 5s 9 11 mph 1007.2mb 56f 56f
4:50pm 3.5ft 6s 5s 11
mph
1007.2mb 56f 55f
3:50pm 3.5ft 6s 5s 11 13 mph 1007.1mb 56f 55f
2:50pm 3.5ft 8s 5s 13
mph
1006.7mb 56f 55f
1:50pm 3.5ft 6s 5s 13 16 mph 1006.4mb 56f 55f
12:50pm 3.5ft 8s 5s 11 13 mph 1006.1mb 56f 55f
11:50am 3.5ft 7s 5s 7 9 mph 1006mb 55f 55f
10:50am 3.5ft 7s 5s 7 9 mph 1005.9mb 55f 55f
9:50am 4ft 8s 6s 7
mph
1005.6mb 55f 55f
8:50am 4ft 7s 6s 9
mph
1005.4mb 55f 55f
7:50am 4ft 7s 5s 9 11 mph 1005.2mb 55f 55f
6:50am 4.5ft 8s 5s 13
mph
1005.1mb 55f 55f
5:50am 5ft 7s 5s 13 16 mph 1004.9mb 56f 55f
4:50am 5ft 8s 5s 13 16 mph 1004.9mb 56f 55f
3:50am 5ft 7s 5s 13 16 mph 1005mb 56f 55f
2:50am 5ft 9s 6s 13 16 mph 1005.2mb 56f 56f
1:50am 5ft 7s 6s 9 11 mph 1005.3mb 56f 55f
12:50am 4.5ft 6s 6s 7 9 mph 1005.3mb 56f 55f
Sun 07/26 11:50pm 5ft 7s 6s 7 9 mph 1005.4mb 56f 55f
10:50pm 5ft 8s 6s 7 9 mph 1005.5mb 56f 54f
9:50pm 5ft 8s 6s 7 9 mph 1005.6mb 56f 54f
8:50pm 5ft 8s 6s 7 9 mph 1005.9mb 56f 54f
7:50pm 5ft 9s 6s 11 13 mph 1006.3mb 57f 54f
6:50pm 5ft 8s 6s 11 13 mph 1006.4mb 57f 55f
5:50pm 5ft 9s 6s 9 11 mph 1006.6mb 56f 56f
4:50pm 5ft 9s 6s 9 11 mph 1006.9mb 56f 55f
3:50pm 5.5ft 7s 6s 11
mph
1007.2mb 56f 55f
2:50pm 5ft 10s 6s 4 7 mph 1007.1mb 56f 56f
1:50pm 5ft 10s 6s 7 9 mph 1007mb 55f 55f
12:50pm 5ft 8s 5s 9 11 mph 1006.8mb 55f 55f
11:50am 4.5ft 9s 5s 11 13 mph 1006.5mb 55f 55f
10:50am 4.5ft 8s 5s 13 16 mph 1006.7mb 55f 55f
9:50am 4.5ft 10s 5s 13 18 mph 1006.6mb 55f 55f
8:50am 4ft 6s 5s 16 20 mph 1006.7mb 55f 55f
7:50am 3.5ft 6s 5s 16 18 mph 1006.8mb 55f 56f
6:50am 3.5ft 6s 5s 9 11 mph 1006.8mb 55f 55f
5:50am 3.5ft 6s 5s 9 11 mph 1006.7mb 55f 54f
4:50am 4ft 6s 5s 11 13 mph 1006.5mb 55f 54f
3:50am 4.5ft 7s 5s 7 9 mph 1006.8mb 56f 54f
2:50am 4.5ft 7s 5s 9 13 mph 1007.2mb 55f 53f
1:50am 4.5ft 6s 5s 9 13 mph 1007.3mb 55f 53f
12:50am 4.5ft 6s 5s 11 13 mph 1007.6mb 56f 53f
Sat 07/25 11:50pm 4ft 6s 5s 13 16 mph 1007.9mb 56f 54f
10:50pm 3ft 6s 4s 13 16 mph 1008.3mb 56f 54f
9:50pm 3ft 7s 5s 11 13 mph 1008.7mb 56f 55f
8:50pm 3.5ft 6s 5s 11 13 mph 1009.1mb 56f 55f
7:50pm 3.5ft 6s 5s 11 13 mph 1009.7mb 56f 55f
6:50pm 3.5ft 6s 6s 9 11 mph 1010.7mb 56f 55f
5:50pm 3.5ft 8s 5s 7 9 mph 1011.3mb 56f 55f
4:50pm 4ft 6s 6s 4
mph
1011.7mb 56f 55f
3:50pm 3.5ft 8s 6s 4 7 mph 1012mb 56f 53f
2:50pm 3.5ft 8s 6s 9
mph
1012.2mb 56f 53f
1:50pm 3.5ft 8s 6s 4 7 mph 1012.3mb 56f 54f
12:50pm 3.5ft 8s 6s  -  2 mph 1012.5mb 56f 54f
11:50am 3.5ft 9s 6s 2 4 mph 1012.5mb 56f 53f
10:50am 3ft 8s 5s 4 7 mph 1012.7mb 55f 52f
9:50am 3.5ft 10s 5s 7 9 mph 1012.5mb 55f 51f
8:50am 3.5ft 8s 5s 4 7 mph 1012.4mb 55f 52f
7:50am 3.5ft 8s 6s 2 4 mph 1012.6mb 55f 53f
6:50am 4ft 8s 6s 4
mph
1012.4mb 55f 53f
5:50am 4.5ft 7s 6s 4 7 mph 1012mb 55f 54f
4:50am 5ft 8s 6s 9 11 mph 1012.2mb 55f 54f
3:50am 4.5ft 7s 6s 9
mph
1011.7mb 55f 54f
2:50am 5ft 7s 6s 4
mph
1011.7mb 55f 54f
1:50am 4.5ft 7s 5s 2 4 mph 1011.8mb 55f 54f
12:50am 4.5ft 8s 6s 2 4 mph 1011.5mb 55f 54f
Fri 07/24 11:50pm 4.5ft 8s 5s 4
mph
1011.4mb 54f 54f
10:50pm 4.5ft 8s 5s 4 7 mph 1011.1mb 55f 55f